Time;durP1;ratioP1;P1;durP2;ratioP2;P2;SDS_P1;SDS_P2;PMS_P1;PMS_P2;Temp;Humidity;BMP_temperature;BMP_pressure;BME280_temperature;BME280_humidity;BME280_pressure;Samples;Min_cycle;Max_cycle;Signal;HPM_P1;HPM_P2
2020/12/08 00:02:13;;;;;;;12.45;10.55;;;;;;;;;;5052459;28;20444;-80
2020/12/08 00:04:39;;;;;;;13.23;11.50;;;;;;;;;;5070109;28;20399;-80
2020/12/08 00:07:05;;;;;;;12.60;11.30;;;;;;;;;;5052233;28;20378;-80
2020/12/08 00:09:32;;;;;;;11.60;10.40;;;;;;;;;;5069662;28;20369;-80
2020/12/08 00:11:58;;;;;;;10.95;9.85;;;;;;;;;;5051965;28;20704;-80
2020/12/08 00:14:24;;;;;;;11.00;9.90;;;;;;;;;;5070188;28;20373;-80
2020/12/08 00:16:50;;;;;;;12.87;11.07;;;;;;;;;;5055031;28;20376;-80
2020/12/08 00:19:16;;;;;;;18.80;13.63;;;;;;;;;;5055587;28;20362;-80
2020/12/08 00:21:43;;;;;;;20.23;15.07;;;;;;;;;;5055590;28;20398;-80
2020/12/08 00:24:09;;;;;;;21.40;15.32;;;;;;;;;;5055640;28;20721;-80
2020/12/08 00:26:36;;;;;;;19.53;15.23;;;;;;;;;;5055849;28;20722;-80
2020/12/08 00:29:03;;;;;;;20.95;16.10;;;;;;;;;;5078203;28;20350;-80
2020/12/08 00:31:29;;;;;;;19.02;14.02;;;;;;;;;;5057746;28;20403;-80
2020/12/08 00:33:56;;;;;;;17.27;14.32;;;;;;;;;;5055281;28;20363;-80
2020/12/08 00:36:22;;;;;;;18.40;15.20;;;;;;;;;;5055481;28;20378;-81
2020/12/08 00:38:48;;;;;;;20.48;15.05;;;;;;;;;;5055238;28;20886;-80
2020/12/08 00:41:18;;;;;;;22.73;15.82;;;;;;;;;;5073191;28;20826;-80
2020/12/08 00:43:44;;;;;;;20.25;15.50;;;;;;;;;;5055271;28;20457;-80
2020/12/08 00:46:13;;;;;;;18.55;13.88;;;;;;;;;;5072932;28;20397;-80
2020/12/08 00:48:40;;;;;;;16.90;13.38;;;;;;;;;;5055018;28;20804;-80
2020/12/08 00:51:06;;;;;;;21.35;15.40;;;;;;;;;;5072869;28;20408;-80
2020/12/08 00:53:32;;;;;;;18.45;14.75;;;;;;;;;;5054784;28;20363;-80
2020/12/08 00:55:59;;;;;;;18.33;14.95;;;;;;;;;;5072893;28;20826;-80
2020/12/08 00:58:25;;;;;;;17.98;13.80;;;;;;;;;;5055079;28;20370;-80
2020/12/08 01:00:51;;;;;;;19.02;14.55;;;;;;;;;;5054626;28;20370;-80
2020/12/08 01:03:17;;;;;;;19.05;14.90;;;;;;;;;;5054706;28;20872;-81
2020/12/08 01:05:43;;;;;;;20.73;14.48;;;;;;;;;;5054922;28;20402;-80
2020/12/08 01:08:09;;;;;;;16.83;13.17;;;;;;;;;;5072738;28;20430;-80
2020/12/08 01:10:36;;;;;;;14.75;11.75;;;;;;;;;;5055791;28;20456;-80
2020/12/08 01:13:02;;;;;;;14.85;11.40;;;;;;;;;;5054813;28;20358;-80
2020/12/08 01:15:28;;;;;;;13.63;11.38;;;;;;;;;;5054653;28;20366;-81
2020/12/08 01:17:54;;;;;;;12.98;10.48;;;;;;;;;;5072613;28;20428;-80
2020/12/08 01:20:20;;;;;;;12.70;11.00;;;;;;;;;;5072106;28;20366;-80
2020/12/08 01:22:46;;;;;;;12.50;10.57;;;;;;;;;;5054531;28;20441;-80
2020/12/08 01:25:12;;;;;;;11.55;10.35;;;;;;;;;;5054659;28;20362;-80
2020/12/08 01:27:39;;;;;;;13.15;10.25;;;;;;;;;;5072028;28;20390;-80
2020/12/08 01:30:05;;;;;;;13.20;10.50;;;;;;;;;;5072530;28;20411;-81
2020/12/08 01:32:31;;;;;;;11.35;10.13;;;;;;;;;;5054316;28;20373;-80
2020/12/08 01:34:57;;;;;;;10.57;9.30;;;;;;;;;;5072434;28;20358;-81
2020/12/08 01:37:23;;;;;;;12.95;9.75;;;;;;;;;;5054035;28;20378;-80
2020/12/08 01:39:49;;;;;;;10.43;9.32;;;;;;;;;;5053985;28;20378;-81
2020/12/08 01:42:15;;;;;;;12.38;9.60;;;;;;;;;;5053834;28;20374;-80
2020/12/08 01:44:48;;;;;;;10.85;9.57;;;;;;;;;;5071781;28;20365;-80
2020/12/08 01:47:17;;;;;;;11.32;10.13;;;;;;;;;;5053934;28;20394;-80
2020/12/08 01:49:46;;;;;;;11.82;10.40;;;;;;;;;;5053582;28;20371;-80
2020/12/08 01:52:14;;;;;;;12.27;10.07;;;;;;;;;;5054002;28;20431;-80
2020/12/08 01:54:40;;;;;;;10.52;9.35;;;;;;;;;;5053838;28;20386;-81
2020/12/08 01:57:07;;;;;;;11.10;9.93;;;;;;;;;;5053940;28;20374;-80
2020/12/08 01:59:32;;;;;;;11.30;10.13;;;;;;;;;;5053612;28;20385;-80
2020/12/08 02:01:58;;;;;;;11.02;9.93;;;;;;;;;;5071644;28;20833;-80
2020/12/08 02:04:25;;;;;;;9.90;8.90;;;;;;;;;;5053522;28;20359;-81
2020/12/08 02:06:51;;;;;;;10.80;9.70;;;;;;;;;;5071357;28;20396;-80
2020/12/08 02:09:17;;;;;;;11.20;9.30;;;;;;;;;;5053220;28;20767;-81
2020/12/08 02:11:43;;;;;;;13.02;11.38;;;;;;;;;;5053725;28;20365;-80
2020/12/08 02:14:09;;;;;;;11.45;10.20;;;;;;;;;;5053334;28;20374;-80
2020/12/08 02:16:34;;;;;;;15.45;13.82;;;;;;;;;;5053332;28;20428;-80
2020/12/08 02:19:01;;;;;;;14.43;12.88;;;;;;;;;;5070922;28;20453;-81
2020/12/08 02:21:31;;;;;;;13.95;12.50;;;;;;;;;;5071407;28;20354;-81
2020/12/08 02:23:57;;;;;;;22.73;20.33;;;;;;;;;;5071122;28;20399;-80
2020/12/08 02:26:23;;;;;;;24.70;19.98;;;;;;;;;;5053306;28;20416;-80
2020/12/08 02:28:50;;;;;;;27.00;21.13;;;;;;;;;;5071173;28;20448;-80
2020/12/08 02:31:16;;;;;;;25.38;21.90;;;;;;;;;;5071040;28;20369;-80
2020/12/08 02:33:42;;;;;;;29.70;24.95;;;;;;;;;;5070801;28;20358;-80
2020/12/08 02:36:08;;;;;;;27.30;24.30;;;;;;;;;;5053264;28;20362;-80
2020/12/08 02:38:34;;;;;;;33.55;27.42;;;;;;;;;;5052310;28;20367;-80
2020/12/08 02:41:00;;;;;;;31.00;27.63;;;;;;;;;;5052562;28;20724;-81
2020/12/08 02:43:27;;;;;;;33.87;29.50;;;;;;;;;;5052763;28;20370;-80
2020/12/08 02:45:53;;;;;;;35.80;30.05;;;;;;;;;;5070350;28;20386;-80
2020/12/08 02:48:19;;;;;;;37.17;31.95;;;;;;;;;;5052662;28;20458;-80
2020/12/08 02:50:45;;;;;;;39.00;31.77;;;;;;;;;;5052601;28;20765;-81
2020/12/08 02:53:11;;;;;;;36.88;30.60;;;;;;;;;;5070599;28;20358;-80
2020/12/08 02:55:37;;;;;;;37.22;31.42;;;;;;;;;;5052662;28;20377;-80
2020/12/08 02:58:03;;;;;;;39.03;31.98;;;;;;;;;;5052670;28;20445;-80
2020/12/08 03:00:29;;;;;;;39.35;31.88;;;;;;;;;;5052710;28;20366;-80
2020/12/08 03:02:55;;;;;;;40.30;33.33;;;;;;;;;;5052286;28;20849;-80
2020/12/08 03:05:21;;;;;;;40.17;34.13;;;;;;;;;;5052359;28;20419;-80
2020/12/08 03:07:47;;;;;;;45.17;36.33;;;;;;;;;;5070592;28;20786;-80
2020/12/08 03:10:16;;;;;;;42.47;33.70;;;;;;;;;;5052299;28;20962;-80
2020/12/08 03:12:42;;;;;;;46.70;37.63;;;;;;;;;;5052684;28;20377;-82
2020/12/08 03:15:08;;;;;;;48.83;37.35;;;;;;;;;;5052377;28;20423;-81
2020/12/08 03:17:35;;;;;;;45.42;36.70;;;;;;;;;;5070310;28;20995;-80
2020/12/08 03:20:01;;;;;;;46.53;37.65;;;;;;;;;;5052275;28;20370;-81
2020/12/08 03:22:27;;;;;;;46.05;38.55;;;;;;;;;;5052589;28;20404;-81
2020/12/08 03:24:53;;;;;;;47.20;38.97;;;;;;;;;;5052334;28;20391;-80
2020/12/08 03:27:19;;;;;;;49.03;38.65;;;;;;;;;;5052475;28;20425;-80
2020/12/08 03:29:45;;;;;;;49.38;39.90;;;;;;;;;;5052120;28;20376;-80
2020/12/08 03:32:12;;;;;;;52.67;41.50;;;;;;;;;;5052144;28;20420;-81
2020/12/08 03:34:38;;;;;;;47.85;39.38;;;;;;;;;;5052495;28;20440;-80
2020/12/08 03:37:04;;;;;;;50.75;41.83;;;;;;;;;;5070327;28;20386;-81
2020/12/08 03:39:30;;;;;;;50.90;41.90;;;;;;;;;;5052113;28;20899;-81
2020/12/08 03:42:03;;;;;;;53.17;42.95;;;;;;;;;;5070208;28;20829;-81
2020/12/08 03:44:29;;;;;;;53.17;42.63;;;;;;;;;;5052256;28;20457;-81
2020/12/08 03:47:04;;;;;;;53.67;43.30;;;;;;;;;;5070493;28;20389;-79
2020/12/08 03:49:31;;;;;;;55.83;44.28;;;;;;;;;;5071312;28;20381;-80
2020/12/08 03:51:58;;;;;;;51.47;42.05;;;;;;;;;;5056377;28;20355;-80
2020/12/08 03:54:24;;;;;;;53.90;43.85;;;;;;;;;;5056810;28;20373;-81
2020/12/08 03:56:50;;;;;;;56.70;44.83;;;;;;;;;;5079432;28;20382;-80
2020/12/08 03:59:17;;;;;;;58.67;44.75;;;;;;;;;;5064840;28;20369;-80
2020/12/08 04:01:44;;;;;;;55.35;44.90;;;;;;;;;;5064882;28;20970;-80
2020/12/08 04:04:10;;;;;;;55.50;44.80;;;;;;;;;;5057841;28;20381;-80
2020/12/08 04:06:36;;;;;;;55.97;45.35;;;;;;;;;;5074817;28;20748;-80
2020/12/08 04:09:02;;;;;;;58.50;45.03;;;;;;;;;;5056026;28;20880;-80
2020/12/08 04:11:28;;;;;;;56.13;45.40;;;;;;;;;;5056128;28;20362;-80
2020/12/08 04:13:54;;;;;;;58.28;45.28;;;;;;;;;;5057434;28;20496;-80
2020/12/08 04:16:20;;;;;;;58.97;45.80;;;;;;;;;;5080510;28;20414;-81
2020/12/08 04:18:46;;;;;;;59.25;47.83;;;;;;;;;;5057939;28;20373;-80
2020/12/08 04:21:12;;;;;;;58.88;46.15;;;;;;;;;;5056384;28;20771;-80
2020/12/08 04:23:38;;;;;;;60.15;48.10;;;;;;;;;;5074070;28;20370;-81
2020/12/08 04:26:09;;;;;;;59.17;47.97;;;;;;;;;;5078239;28;20477;-80
2020/12/08 04:28:35;;;;;;;61.83;49.47;;;;;;;;;;5059283;28;20370;-80
2020/12/08 04:31:01;;;;;;;65.05;50.03;;;;;;;;;;5055533;28;20485;-82
2020/12/08 04:33:28;;;;;;;64.97;50.25;;;;;;;;;;5055608;28;20377;-81
2020/12/08 04:35:54;;;;;;;61.75;49.90;;;;;;;;;;5056046;28;20378;-80
2020/12/08 04:38:20;;;;;;;65.97;50.78;;;;;;;;;;5055424;28;20390;-81
2020/12/08 04:40:49;;;;;;;62.42;49.85;;;;;;;;;;5054954;28;20370;-80
2020/12/08 04:43:15;;;;;;;66.30;50.58;;;;;;;;;;5056409;28;20373;-81
2020/12/08 04:45:41;;;;;;;67.53;53.10;;;;;;;;;;5055240;28;20362;-80
2020/12/08 04:48:07;;;;;;;66.55;50.70;;;;;;;;;;5056409;28;20370;-80
2020/12/08 04:50:33;;;;;;;65.30;51.03;;;;;;;;;;5072846;28;20362;-80
2020/12/08 04:53:00;;;;;;;65.38;50.78;;;;;;;;;;5055094;28;20415;-80
2020/12/08 04:55:26;;;;;;;63.90;50.22;;;;;;;;;;5054725;28;20405;-80
2020/12/08 04:57:55;;;;;;;69.55;53.53;;;;;;;;;;5073118;28;20473;-80
2020/12/08 05:00:21;;;;;;;67.43;52.97;;;;;;;;;;5054670;28;20378;-80
2020/12/08 05:02:48;;;;;;;66.17;52.27;;;;;;;;;;5072406;28;20492;-80
2020/12/08 05:05:15;;;;;;;70.95;54.17;;;;;;;;;;5054625;28;20841;-80
2020/12/08 05:07:41;;;;;;;63.00;50.47;;;;;;;;;;5072679;28;20418;-81
2020/12/08 05:10:08;;;;;;;67.28;52.20;;;;;;;;;;5054608;28;20378;-81
2020/12/08 05:12:34;;;;;;;66.00;51.67;;;;;;;;;;5055024;28;20463;-81
2020/12/08 05:15:00;;;;;;;69.00;53.30;;;;;;;;;;5054931;28;20359;-81
2020/12/08 05:17:27;;;;;;;71.47;55.00;;;;;;;;;;5054736;28;20385;-81
2020/12/08 05:20:07;;;;;;;68.43;53.13;;;;;;;;;;5054505;28;20374;-81
2020/12/08 05:22:33;;;;;;;68.03;52.50;;;;;;;;;;5054529;28;20401;-81
2020/12/08 05:25:16;;;;;;;65.23;50.47;;;;;;;;;;5054496;28;20372;-81
2020/12/08 05:27:46;;;;;;;65.20;50.60;;;;;;;;;;5054482;28;20393;-80
2020/12/08 05:30:12;;;;;;;64.93;50.05;;;;;;;;;;5057106;28;20935;-81
2020/12/08 05:32:39;;;;;;;67.32;52.97;;;;;;;;;;5072189;28;20453;-81
2020/12/08 05:35:07;;;;;;;68.20;52.28;;;;;;;;;;5072610;28;20370;-81
2020/12/08 05:37:36;;;;;;;65.95;51.63;;;;;;;;;;5072413;28;20354;-81
2020/12/08 05:40:04;;;;;;;69.40;52.13;;;;;;;;;;5072349;28;20362;-81
2020/12/08 05:42:32;;;;;;;63.85;50.75;;;;;;;;;;5054653;28;20367;-80
2020/12/08 05:44:58;;;;;;;68.38;52.00;;;;;;;;;;5054686;28;20408;-81
2020/12/08 05:47:24;;;;;;;69.72;52.58;;;;;;;;;;5055143;28;20390;-81
2020/12/08 05:50:00;;;;;;;67.20;52.78;;;;;;;;;;5072951;28;20381;-81
2020/12/08 05:52:30;;;;;;;66.90;52.08;;;;;;;;;;5054655;28;20382;-82
2020/12/08 05:55:18;;;;;;;66.57;52.50;;;;;;;;;;5054734;28;20411;-81
2020/12/08 05:57:44;;;;;;;66.63;52.10;;;;;;;;;;5055203;28;20714;-82
2020/12/08 06:00:20;;;;;;;65.70;51.05;;;;;;;;;;5054311;28;20363;-80
2020/12/08 06:02:47;;;;;;;68.65;53.17;;;;;;;;;;5034663;28;20436;-80
2020/12/08 06:05:32;;;;;;;68.70;52.63;;;;;;;;;;5034803;28;20492;-79
2020/12/08 06:07:59;;;;;;;64.90;51.40;;;;;;;;;;5040692;28;20891;-80
2020/12/08 06:10:25;;;;;;;66.50;51.42;;;;;;;;;;5042579;28;20402;-80
2020/12/08 06:13:01;;;;;;;67.53;51.60;;;;;;;;;;5062547;28;20422;-81
2020/12/08 06:15:37;;;;;;;66.28;51.33;;;;;;;;;;5035135;28;20386;-82
2020/12/08 06:18:03;;;;;;;67.45;51.28;;;;;;;;;;5075205;28;20366;-79
2020/12/08 06:20:29;;;;;;;67.00;51.35;;;;;;;;;;5054723;28;20370;-80
2020/12/08 06:22:59;;;;;;;69.95;52.03;;;;;;;;;;5072122;28;20358;-80
2020/12/08 06:25:26;;;;;;;65.47;50.70;;;;;;;;;;5050685;28;20370;-80
2020/12/08 06:28:05;;;;;;;67.20;51.77;;;;;;;;;;5052500;28;20400;-81
2020/12/08 06:30:31;;;;;;;63.47;50.80;;;;;;;;;;5053139;28;20385;-80
2020/12/08 06:32:57;;;;;;;65.05;51.17;;;;;;;;;;5070770;28;20358;-81
2020/12/08 06:35:23;;;;;;;68.40;52.20;;;;;;;;;;5070775;28;20350;-81
2020/12/08 06:37:50;;;;;;;64.90;49.72;;;;;;;;;;5053249;28;20439;-80
2020/12/08 06:40:21;;;;;;;63.22;47.95;;;;;;;;;;5052921;28;20367;-80
2020/12/08 06:42:47;;;;;;;68.03;50.50;;;;;;;;;;5053483;28;20370;-80
2020/12/08 06:45:14;;;;;;;63.28;50.15;;;;;;;;;;5070834;28;20726;-81
2020/12/08 06:47:40;;;;;;;59.83;48.33;;;;;;;;;;5052972;28;20417;-80
2020/12/08 06:50:07;;;;;;;60.05;46.65;;;;;;;;;;5052714;28;20366;-80
2020/12/08 06:52:34;;;;;;;64.13;50.17;;;;;;;;;;5071619;28;20377;-80
2020/12/08 06:55:04;;;;;;;63.22;49.55;;;;;;;;;;5071188;28;20390;-80
2020/12/08 06:57:30;;;;;;;67.93;51.77;;;;;;;;;;5053741;28;20922;-81
2020/12/08 07:00:06;;;;;;;68.13;51.95;;;;;;;;;;5053487;28;20405;-81
2020/12/08 07:02:39;;;;;;;62.90;51.33;;;;;;;;;;5053725;28;20853;-80
2020/12/08 07:05:05;;;;;;;67.60;51.30;;;;;;;;;;5071469;28;20373;-79
2020/12/08 07:07:31;;;;;;;63.78;50.80;;;;;;;;;;5053464;28;20390;-80
2020/12/08 07:09:59;;;;;;;64.53;50.50;;;;;;;;;;5052671;28;20370;-81
2020/12/08 07:12:25;;;;;;;66.78;50.88;;;;;;;;;;5063486;28;20373;-82
2020/12/08 07:14:58;;;;;;;63.60;50.25;;;;;;;;;;5044603;28;20388;-81
2020/12/08 07:17:30;;;;;;;68.43;51.28;;;;;;;;;;5034047;28;20387;-80
2020/12/08 07:19:57;;;;;;;65.28;50.58;;;;;;;;;;5035140;28;20376;-81
2020/12/08 07:22:23;;;;;;;65.32;52.00;;;;;;;;;;5037616;28;20408;-79
2020/12/08 07:24:50;;;;;;;66.53;51.00;;;;;;;;;;5055508;28;20886;-79
2020/12/08 07:27:18;;;;;;;70.03;53.03;;;;;;;;;;5064040;28;20399;-79
2020/12/08 07:29:44;;;;;;;65.10;50.80;;;;;;;;;;5021098;28;20730;-81
2020/12/08 07:32:10;;;;;;;67.93;51.92;;;;;;;;;;5075486;28;20373;-80
2020/12/08 07:34:36;;;;;;;63.90;49.80;;;;;;;;;;5043754;28;20372;-78
2020/12/08 07:37:02;;;;;;;67.32;51.40;;;;;;;;;;5038076;28;20418;-78
2020/12/08 07:39:29;;;;;;;64.13;50.53;;;;;;;;;;5074093;28;20370;-79
2020/12/08 07:42:02;;;;;;;64.15;49.88;;;;;;;;;;5073655;28;20472;-79
2020/12/08 07:44:28;;;;;;;62.97;50.42;;;;;;;;;;5044706;28;20372;-80
2020/12/08 07:46:54;;;;;;;64.88;51.35;;;;;;;;;;5062989;28;20451;-79
2020/12/08 07:49:20;;;;;;;64.38;50.28;;;;;;;;;;5054656;28;20394;-80
2020/12/08 07:51:49;;;;;;;61.43;49.53;;;;;;;;;;5057366;28;20374;-78
2020/12/08 07:54:15;;;;;;;65.38;49.75;;;;;;;;;;5037601;28;20422;-78
2020/12/08 07:56:41;;;;;;;63.05;49.92;;;;;;;;;;5043208;28;20390;-78
2020/12/08 07:59:08;;;;;;;63.80;49.63;;;;;;;;;;5072431;28;20479;-80
2020/12/08 08:01:41;;;;;;;64.55;49.83;;;;;;;;;;5037393;28;20463;-79
2020/12/08 08:04:22;;;;;;;65.22;49.90;;;;;;;;;;5053679;28;20382;-79
2020/12/08 08:06:48;;;;;;;63.57;49.73;;;;;;;;;;5065595;28;20395;-79
2020/12/08 08:09:14;;;;;;;62.65;48.78;;;;;;;;;;5043614;28;20389;-79
2020/12/08 08:11:40;;;;;;;66.00;49.75;;;;;;;;;;5050354;28;20370;-81
2020/12/08 08:14:06;;;;;;;64.20;49.78;;;;;;;;;;5057956;28;20771;-80
2020/12/08 08:16:34;;;;;;;59.88;48.97;;;;;;;;;;5050255;28;20372;-78
2020/12/08 08:19:00;;;;;;;63.72;47.88;;;;;;;;;;5062614;28;20358;-80
2020/12/08 08:21:26;;;;;;;60.13;48.47;;;;;;;;;;5055920;28;20374;-77
2020/12/08 08:23:52;;;;;;;62.80;47.60;;;;;;;;;;5047399;28;20380;-79
2020/12/08 08:26:18;;;;;;;63.15;46.58;;;;;;;;;;5047911;28;20428;-80
2020/12/08 08:28:44;;;;;;;59.92;48.28;;;;;;;;;;5046989;28;20870;-78
2020/12/08 08:31:11;;;;;;;60.53;47.17;;;;;;;;;;5036299;28;20363;-78
2020/12/08 08:33:37;;;;;;;58.53;46.20;;;;;;;;;;5071105;28;20397;-79
2020/12/08 08:36:04;;;;;;;59.35;47.22;;;;;;;;;;5073351;28;20382;-79
2020/12/08 08:38:30;;;;;;;62.53;47.03;;;;;;;;;;5056358;28;20779;-79
2020/12/08 08:40:57;;;;;;;58.70;45.63;;;;;;;;;;5050354;28;20893;-78
2020/12/08 08:43:23;;;;;;;58.90;46.60;;;;;;;;;;5048314;28;20370;-80
2020/12/08 08:45:49;;;;;;;60.03;45.88;;;;;;;;;;5044408;28;20372;-77
2020/12/08 08:48:16;;;;;;;60.97;45.80;;;;;;;;;;5038964;28;20394;-80
2020/12/08 08:50:43;;;;;;;60.53;44.67;;;;;;;;;;5055367;28;20431;-80
2020/12/08 08:53:09;;;;;;;59.15;46.35;;;;;;;;;;5045439;28;20391;-78
2020/12/08 08:55:36;;;;;;;56.97;45.92;;;;;;;;;;5056546;28;20378;-81
2020/12/08 08:58:02;;;;;;;58.45;46.15;;;;;;;;;;5037016;28;20379;-80
2020/12/08 09:00:28;;;;;;;59.05;46.60;;;;;;;;;;5050050;28;20454;-79
2020/12/08 09:02:58;;;;;;;58.45;45.70;;;;;;;;;;5061697;28;20366;-79
2020/12/08 09:05:24;;;;;;;58.83;47.13;;;;;;;;;;5052747;28;20735;-80
2020/12/08 09:07:51;;;;;;;58.07;46.10;;;;;;;;;;5055776;28;21008;-79
2020/12/08 09:10:17;;;;;;;61.78;47.00;;;;;;;;;;5064414;28;20398;-78
2020/12/08 09:12:43;;;;;;;60.75;46.92;;;;;;;;;;5052541;28;20386;-78
2020/12/08 09:15:10;;;;;;;58.03;46.95;;;;;;;;;;5045180;28;20861;-79
2020/12/08 09:17:36;;;;;;;59.13;46.43;;;;;;;;;;5035617;28;20379;-79
2020/12/08 09:20:03;;;;;;;60.58;47.20;;;;;;;;;;5048137;28;20370;-79
2020/12/08 09:22:29;;;;;;;61.50;46.35;;;;;;;;;;5035584;28;20893;-83
2020/12/08 09:24:55;;;;;;;58.92;46.03;;;;;;;;;;5053989;28;20838;-79
2020/12/08 09:27:21;;;;;;;57.17;46.10;;;;;;;;;;5052027;28;20767;-79
2020/12/08 09:29:48;;;;;;;61.05;46.13;;;;;;;;;;5047823;28;20380;-79
2020/12/08 09:32:14;;;;;;;60.30;45.78;;;;;;;;;;5037828;28;20549;-81
2020/12/08 09:34:40;;;;;;;58.95;46.00;;;;;;;;;;5073256;28;20374;-79
2020/12/08 09:37:06;;;;;;;59.00;45.60;;;;;;;;;;5064379;28;20453;-80
2020/12/08 09:39:32;;;;;;;58.20;45.55;;;;;;;;;;5040433;28;20374;-79
2020/12/08 09:41:59;;;;;;;56.90;44.70;;;;;;;;;;5062884;28;20368;-80
2020/12/08 09:44:25;;;;;;;61.72;46.38;;;;;;;;;;5063439;28;20800;-81
2020/12/08 09:46:52;;;;;;;60.63;45.88;;;;;;;;;;5038049;28;20394;-81
2020/12/08 09:49:19;;;;;;;57.22;44.58;;;;;;;;;;5064399;28;20852;-81
2020/12/08 09:51:45;;;;;;;56.28;46.28;;;;;;;;;;5072220;28;20793;-83
2020/12/08 09:54:11;;;;;;;57.55;45.15;;;;;;;;;;5054895;28;20383;-80
2020/12/08 09:56:37;;;;;;;54.95;44.10;;;;;;;;;;5041746;28;20442;-80
2020/12/08 09:59:03;;;;;;;57.30;45.40;;;;;;;;;;5049802;28;20871;-80
2020/12/08 10:01:30;;;;;;;55.45;44.83;;;;;;;;;;5066182;28;20375;-80
2020/12/08 10:03:57;;;;;;;56.53;45.00;;;;;;;;;;5033137;28;20766;-79
2020/12/08 10:06:23;;;;;;;57.50;45.33;;;;;;;;;;5051338;28;20949;-79
2020/12/08 10:08:49;;;;;;;57.80;44.78;;;;;;;;;;5040268;28;20861;-80
2020/12/08 10:11:16;;;;;;;57.47;45.17;;;;;;;;;;5052299;28;20485;-80
2020/12/08 10:13:43;;;;;;;55.97;43.97;;;;;;;;;;5056293;28;20425;-79
2020/12/08 10:16:09;;;;;;;59.92;45.47;;;;;;;;;;5046714;28;20382;-80
2020/12/08 10:18:35;;;;;;;53.22;43.45;;;;;;;;;;5033002;28;20383;-78
2020/12/08 10:21:02;;;;;;;58.05;45.38;;;;;;;;;;5051170;28;20380;-78
2020/12/08 10:23:28;;;;;;;55.72;44.88;;;;;;;;;;5052837;28;20374;-78
2020/12/08 10:25:54;;;;;;;55.70;44.75;;;;;;;;;;5046021;28;20421;-79
2020/12/08 10:28:21;;;;;;;54.93;43.57;;;;;;;;;;5066864;28;20374;-85
2020/12/08 10:30:48;;;;;;;56.88;44.38;;;;;;;;;;5068384;28;20363;-82
2020/12/08 10:33:15;;;;;;;59.70;45.70;;;;;;;;;;5034981;28;20387;-81
2020/12/08 10:35:41;;;;;;;53.28;43.70;;;;;;;;;;5033600;28;20900;-83
2020/12/08 10:38:08;;;;;;;57.35;44.55;;;;;;;;;;5043908;28;20391;-83
2020/12/08 10:40:34;;;;;;;54.80;43.37;;;;;;;;;;5023177;28;21265;-83
2020/12/08 10:43:02;;;;;;;58.47;44.05;;;;;;;;;;5037832;28;20359;-83
2020/12/08 10:45:28;;;;;;;59.47;46.60;;;;;;;;;;5066132;28;20358;-81
2020/12/08 10:47:55;;;;;;;55.30;44.47;;;;;;;;;;5072385;28;20737;-81
2020/12/08 10:50:21;;;;;;;53.75;42.53;;;;;;;;;;5072353;28;20389;-81
2020/12/08 10:52:47;;;;;;;53.22;42.50;;;;;;;;;;5053879;28;20366;-81
2020/12/08 10:55:14;;;;;;;55.53;43.03;;;;;;;;;;5066927;28;20380;-82
2020/12/08 10:57:40;;;;;;;55.65;42.83;;;;;;;;;;5048138;28;20374;-82
2020/12/08 11:00:06;;;;;;;55.42;43.15;;;;;;;;;;5070747;28;20788;-81
2020/12/08 11:02:32;;;;;;;55.70;42.80;;;;;;;;;;5054530;28;20844;-83
2020/12/08 11:05:03;;;;;;;53.25;42.55;;;;;;;;;;5055025;28;20381;-84
2020/12/08 11:07:29;;;;;;;57.10;43.33;;;;;;;;;;5054669;28;20748;-81
2020/12/08 11:09:55;;;;;;;54.20;42.67;;;;;;;;;;5053012;28;20375;-81
2020/12/08 11:12:21;;;;;;;53.00;41.90;;;;;;;;;;5054495;28;20364;-82
2020/12/08 11:14:47;;;;;;;53.83;42.10;;;;;;;;;;5035025;28;20376;-82
2020/12/08 11:17:14;;;;;;;52.88;41.88;;;;;;;;;;5070313;28;20479;-82
2020/12/08 11:19:40;;;;;;;55.08;42.10;;;;;;;;;;5072295;28;20365;-84
2020/12/08 11:22:07;;;;;;;53.47;42.80;;;;;;;;;;5054999;28;20366;-80
2020/12/08 11:24:34;;;;;;;51.22;42.03;;;;;;;;;;5055192;28;20925;-82
2020/12/08 11:27:00;;;;;;;52.05;41.90;;;;;;;;;;5043670;28;20904;-82
2020/12/08 11:29:27;;;;;;;51.60;41.60;;;;;;;;;;5017935;28;20402;-82
2020/12/08 11:31:53;;;;;;;53.72;41.92;;;;;;;;;;5048417;28;20446;-80
2020/12/08 11:34:20;;;;;;;51.80;40.83;;;;;;;;;;5057155;28;20379;-82
2020/12/08 11:36:47;;;;;;;53.58;41.63;;;;;;;;;;5052072;28;20359;-81
2020/12/08 11:39:13;;;;;;;51.83;40.92;;;;;;;;;;5034164;28;20371;-84
2020/12/08 11:41:42;;;;;;;51.53;40.50;;;;;;;;;;5035141;28;20376;-81
2020/12/08 11:44:11;;;;;;;50.92;41.05;;;;;;;;;;5054011;28;20356;-82
2020/12/08 11:46:39;;;;;;;54.85;41.15;;;;;;;;;;5066183;28;20393;-84
2020/12/08 11:49:06;;;;;;;50.97;40.60;;;;;;;;;;5064330;28;20848;-83
2020/12/08 11:51:32;;;;;;;47.30;38.70;;;;;;;;;;5026676;28;20408;-83
2020/12/08 11:53:58;;;;;;;48.22;40.78;;;;;;;;;;5045548;28;20376;-85
2020/12/08 11:56:25;;;;;;;50.92;40.33;;;;;;;;;;5045806;28;20868;-83
2020/12/08 11:58:52;;;;;;;51.00;41.53;;;;;;;;;;5045280;28;20400;-81
2020/12/08 12:01:19;;;;;;;50.90;39.30;;;;;;;;;;5055067;28;20363;-83
2020/12/08 12:03:45;;;;;;;50.30;40.13;;;;;;;;;;5053585;28;20364;-84
2020/12/08 12:06:13;;;;;;;50.10;40.15;;;;;;;;;;5052612;28;20754;-83
2020/12/08 12:08:47;;;;;;;50.97;40.17;;;;;;;;;;5058091;28;20391;-86
2020/12/08 12:11:13;;;;;;;49.70;39.50;;;;;;;;;;5039091;28;20912;-84
2020/12/08 12:13:39;;;;;;;47.83;38.92;;;;;;;;;;5036142;28;20383;-81
2020/12/08 12:16:06;;;;;;;48.90;39.15;;;;;;;;;;5037076;28;20368;-82
2020/12/08 12:18:32;;;;;;;48.43;38.60;;;;;;;;;;5038045;28;20420;-86
2020/12/08 12:20:58;;;;;;;47.50;39.80;;;;;;;;;;5038934;28;20854;-81
2020/12/08 12:23:24;;;;;;;52.50;40.08;;;;;;;;;;5056789;28;20418;-80
2020/12/08 12:25:50;;;;;;;48.78;39.13;;;;;;;;;;5056674;28;20383;-83
2020/12/08 12:28:16;;;;;;;49.22;39.92;;;;;;;;;;5041233;28;20379;-84
2020/12/08 12:30:42;;;;;;;49.70;39.30;;;;;;;;;;5038506;28;20368;-81
2020/12/08 12:33:09;;;;;;;49.22;39.60;;;;;;;;;;5039178;28;20359;-81
2020/12/08 12:35:35;;;;;;;49.20;37.90;;;;;;;;;;5037995;28;20367;-85
2020/12/08 12:38:01;;;;;;;49.70;39.17;;;;;;;;;;5056042;28;20851;-82
2020/12/08 12:40:27;;;;;;;50.88;39.58;;;;;;;;;;5055578;28;20819;-82
2020/12/08 12:42:53;;;;;;;50.63;40.10;;;;;;;;;;5055835;28;20362;-82
2020/12/08 12:45:19;;;;;;;46.63;38.25;;;;;;;;;;5073054;28;20863;-82
2020/12/08 12:47:45;;;;;;;45.05;38.17;;;;;;;;;;5074271;28;20898;-82
2020/12/08 12:50:11;;;;;;;49.97;40.10;;;;;;;;;;5056706;28;20734;-81
2020/12/08 12:52:37;;;;;;;50.25;39.40;;;;;;;;;;5056376;28;20717;-81
2020/12/08 12:55:03;;;;;;;49.38;39.47;;;;;;;;;;5073628;28;20744;-82
2020/12/08 12:57:29;;;;;;;49.22;40.53;;;;;;;;;;5075472;28;20359;-82
2020/12/08 12:59:56;;;;;;;53.00;39.72;;;;;;;;;;5058832;28;20378;-82
2020/12/08 13:02:23;;;;;;;48.97;38.93;;;;;;;;;;5058230;28;20371;-84
2020/12/08 13:04:50;;;;;;;49.35;39.70;;;;;;;;;;5069451;28;20380;-85
2020/12/08 13:07:17;;;;;;;47.95;40.00;;;;;;;;;;5044789;28;20486;-85
2020/12/08 13:09:44;;;;;;;50.63;41.42;;;;;;;;;;5067289;28;20366;-85
2020/12/08 13:12:13;;;;;;;50.00;40.92;;;;;;;;;;5047436;28;20366;-81
2020/12/08 13:14:39;;;;;;;50.17;40.65;;;;;;;;;;5063758;28;20376;-81
2020/12/08 13:17:06;;;;;;;48.38;40.45;;;;;;;;;;5063619;28;20370;-83
2020/12/08 13:19:32;;;;;;;52.47;41.58;;;;;;;;;;5044872;28;20393;-83
2020/12/08 13:22:05;;;;;;;50.23;41.17;;;;;;;;;;5043198;28;20406;-85
2020/12/08 13:24:32;;;;;;;54.38;41.88;;;;;;;;;;5048062;28;20409;-83
2020/12/08 13:27:00;;;;;;;54.03;43.05;;;;;;;;;;5049379;28;20406;-84
2020/12/08 13:29:27;;;;;;;52.22;41.33;;;;;;;;;;5045594;28;20383;-84
2020/12/08 13:31:56;;;;;;;50.38;39.95;;;;;;;;;;5066315;28;20431;-84
2020/12/08 13:34:22;;;;;;;52.83;42.05;;;;;;;;;;5040439;28;20376;-83
2020/12/08 13:36:50;;;;;;;53.70;42.53;;;;;;;;;;5041518;28;20368;-83
2020/12/08 13:39:16;;;;;;;54.33;43.63;;;;;;;;;;5063787;28;20379;-82
2020/12/08 13:41:46;;;;;;;53.93;42.53;;;;;;;;;;5021617;28;20380;-83
2020/12/08 13:44:13;;;;;;;54.72;43.88;;;;;;;;;;5046957;28;20385;-83
2020/12/08 13:46:40;;;;;;;51.90;42.87;;;;;;;;;;5036611;28;20913;-85
2020/12/08 13:49:07;;;;;;;55.30;43.65;;;;;;;;;;5038354;28;20423;-82
2020/12/08 13:51:34;;;;;;;52.58;43.70;;;;;;;;;;5045439;28;20379;-82
2020/12/08 13:54:00;;;;;;;52.90;44.70;;;;;;;;;;5045764;28;20391;-85
2020/12/08 13:56:30;;;;;;;56.38;45.92;;;;;;;;;;5053450;28;20443;-84
2020/12/08 13:59:04;;;;;;;58.65;46.70;;;;;;;;;;5029327;28;20382;-86
2020/12/08 14:01:38;;;;;;;55.97;46.67;;;;;;;;;;5048023;28;20387;-81
2020/12/08 14:04:06;;;;;;;58.00;46.97;;;;;;;;;;5048564;28;20390;-84
2020/12/08 14:06:33;;;;;;;57.80;46.88;;;;;;;;;;5039932;28;20408;-82
2020/12/08 14:08:59;;;;;;;61.00;47.42;;;;;;;;;;5040704;28;20713;-83
2020/12/08 14:11:25;;;;;;;60.38;48.72;;;;;;;;;;5054662;28;20467;-81
2020/12/08 14:13:53;;;;;;;59.08;48.58;;;;;;;;;;5072256;28;20383;-79
2020/12/08 14:16:19;;;;;;;61.95;49.25;;;;;;;;;;5054422;28;20378;-79
2020/12/08 14:18:45;;;;;;;59.35;48.40;;;;;;;;;;5048395;28;20881;-81